sensor_id;sensor_type;location;lat;lon;timestamp;temperature;humidity
30764;DHT22;17497;51.476;7.770;2023-09-18T00:00:47;20.50;99.90
30764;DHT22;17497;51.476;7.770;2023-09-18T00:03:20;20.50;99.90
30764;DHT22;17497;51.476;7.770;2023-09-18T00:05:48;20.50;99.90
30764;DHT22;17497;51.476;7.770;2023-09-18T00:08:15;20.60;99.90
30764;DHT22;17497;51.476;7.770;2023-09-18T00:10:47;20.50;99.90
30764;DHT22;17497;51.476;7.770;2023-09-18T00:13:14;20.50;99.90
30764;DHT22;17497;51.476;7.770;2023-09-18T00:15:41;20.50;99.90
30764;DHT22;17497;51.476;7.770;2023-09-18T00:18:09;20.50;99.90
30764;DHT22;17497;51.476;7.770;2023-09-18T00:20:36;20.50;99.90
30764;DHT22;17497;51.476;7.770;2023-09-18T00:23:03;20.50;99.90
30764;DHT22;17497;51.476;7.770;2023-09-18T00:25:30;20.50;99.90
30764;DHT22;17497;51.476;7.770;2023-09-18T00:27:58;20.40;99.90
30764;DHT22;17497;51.476;7.770;2023-09-18T00:30:25;20.40;99.90
30764;DHT22;17497;51.476;7.770;2023-09-18T00:32:52;20.40;99.90
30764;DHT22;17497;51.476;7.770;2023-09-18T00:35:19;20.40;99.90
30764;DHT22;17497;51.476;7.770;2023-09-18T00:37:46;20.40;99.90
30764;DHT22;17497;51.476;7.770;2023-09-18T00:40:12;20.40;99.90
30764;DHT22;17497;51.476;7.770;2023-09-18T00:42:39;20.40;99.90
30764;DHT22;17497;51.476;7.770;2023-09-18T00:45:07;20.30;99.90
30764;DHT22;17497;51.476;7.770;2023-09-18T00:47:35;20.30;99.90
30764;DHT22;17497;51.476;7.770;2023-09-18T00:50:04;20.30;99.90
30764;DHT22;17497;51.476;7.770;2023-09-18T00:52:32;20.30;99.90
30764;DHT22;17497;51.476;7.770;2023-09-18T00:55:00;20.30;99.90
30764;DHT22;17497;51.476;7.770;2023-09-18T00:57:28;20.30;99.90
30764;DHT22;17497;51.476;7.770;2023-09-18T00:59:55;20.20;99.90
30764;DHT22;17497;51.476;7.770;2023-09-18T01:02:22;20.20;99.90
30764;DHT22;17497;51.476;7.770;2023-09-18T01:04:49;20.20;99.90
30764;DHT22;17497;51.476;7.770;2023-09-18T01:07:16;20.10;99.90
30764;DHT22;17497;51.476;7.770;2023-09-18T01:09:43;20.10;99.90
30764;DHT22;17497;51.476;7.770;2023-09-18T01:13:08;20.10;99.90
30764;DHT22;17497;51.476;7.770;2023-09-18T01:15:32;20.10;99.90
30764;DHT22;17497;51.476;7.770;2023-09-18T01:18:01;20.10;99.90
30764;DHT22;17497;51.476;7.770;2023-09-18T01:20:27;20.10;99.90
30764;DHT22;17497;51.476;7.770;2023-09-18T01:22:54;20.00;99.90
30764;DHT22;17497;51.476;7.770;2023-09-18T01:25:21;20.00;99.90
30764;DHT22;17497;51.476;7.770;2023-09-18T01:27:48;19.90;99.90
30764;DHT22;17497;51.476;7.770;2023-09-18T01:30:15;19.90;99.90
30764;DHT22;17497;51.476;7.770;2023-09-18T01:32:43;19.90;99.90
30764;DHT22;17497;51.476;7.770;2023-09-18T01:35:11;19.80;99.90
30764;DHT22;17497;51.476;7.770;2023-09-18T01:37:39;19.80;99.90
30764;DHT22;17497;51.476;7.770;2023-09-18T01:40:08;19.70;99.90
30764;DHT22;17497;51.476;7.770;2023-09-18T01:42:35;19.60;99.90
30764;DHT22;17497;51.476;7.770;2023-09-18T01:45:02;19.60;99.90
30764;DHT22;17497;51.476;7.770;2023-09-18T01:47:31;19.60;99.90
30764;DHT22;17497;51.476;7.770;2023-09-18T01:49:58;19.50;99.90
30764;DHT22;17497;51.476;7.770;2023-09-18T01:52:30;19.60;99.90
30764;DHT22;17497;51.476;7.770;2023-09-18T01:54:57;19.60;99.90
30764;DHT22;17497;51.476;7.770;2023-09-18T01:57:24;19.70;99.90
30764;DHT22;17497;51.476;7.770;2023-09-18T01:59:52;19.70;99.90
30764;DHT22;17497;51.476;7.770;2023-09-18T02:02:19;19.70;99.90
30764;DHT22;17497;51.476;7.770;2023-09-18T02:04:56;19.70;99.90
30764;DHT22;17497;51.476;7.770;2023-09-18T02:07:35;19.80;99.90
30764;DHT22;17497;51.476;7.770;2023-09-18T02:10:02;19.80;99.90
30764;DHT22;17497;51.476;7.770;2023-09-18T02:12:29;19.80;99.90
30764;DHT22;17497;51.476;7.770;2023-09-18T02:14:56;19.80;99.90
30764;DHT22;17497;51.476;7.770;2023-09-18T02:17:25;19.90;99.90
30764;DHT22;17497;51.476;7.770;2023-09-18T02:19:51;20.00;99.90
30764;DHT22;17497;51.476;7.770;2023-09-18T02:22:18;20.00;99.90
30764;DHT22;17497;51.476;7.770;2023-09-18T02:24:45;20.00;99.90
30764;DHT22;17497;51.476;7.770;2023-09-18T02:27:11;20.10;99.90
30764;DHT22;17497;51.476;7.770;2023-09-18T02:29:38;20.20;99.90
30764;DHT22;17497;51.476;7.770;2023-09-18T02:32:05;20.30;99.90
30764;DHT22;17497;51.476;7.770;2023-09-18T02:34:32;20.30;99.90
30764;DHT22;17497;51.476;7.770;2023-09-18T02:37:00;20.40;99.90
30764;DHT22;17497;51.476;7.770;2023-09-18T02:39:26;20.50;99.90
30764;DHT22;17497;51.476;7.770;2023-09-18T02:41:53;20.60;99.90
30764;DHT22;17497;51.476;7.770;2023-09-18T02:44:20;20.60;99.90
30764;DHT22;17497;51.476;7.770;2023-09-18T02:46:47;20.60;99.90
30764;DHT22;17497;51.476;7.770;2023-09-18T02:49:14;20.60;99.90
30764;DHT22;17497;51.476;7.770;2023-09-18T02:51:40;20.70;99.90
30764;DHT22;17497;51.476;7.770;2023-09-18T02:54:07;20.80;99.90
30764;DHT22;17497;51.476;7.770;2023-09-18T02:56:34;20.80;99.90
30764;DHT22;17497;51.476;7.770;2023-09-18T02:59:01;20.80;99.90
30764;DHT22;17497;51.476;7.770;2023-09-18T03:01:27;20.90;99.90
30764;DHT22;17497;51.476;7.770;2023-09-18T03:03:54;20.90;99.90
30764;DHT22;17497;51.476;7.770;2023-09-18T03:06:21;21.00;99.90
30764;DHT22;17497;51.476;7.770;2023-09-18T03:08:48;21.00;99.90
30764;DHT22;17497;51.476;7.770;2023-09-18T03:11:15;21.10;99.90
30764;DHT22;17497;51.476;7.770;2023-09-18T03:13:46;21.10;99.90
30764;DHT22;17497;51.476;7.770;2023-09-18T03:16:14;21.10;99.90
30764;DHT22;17497;51.476;7.770;2023-09-18T03:18:41;21.10;99.90
30764;DHT22;17497;51.476;7.770;2023-09-18T03:21:07;21.20;99.90
30764;DHT22;17497;51.476;7.770;2023-09-18T03:23:34;21.20;99.90
30764;DHT22;17497;51.476;7.770;2023-09-18T03:26:01;21.20;99.90
30764;DHT22;17497;51.476;7.770;2023-09-18T03:28:29;21.20;99.90
30764;DHT22;17497;51.476;7.770;2023-09-18T03:30:57;21.20;99.90
30764;DHT22;17497;51.476;7.770;2023-09-18T03:33:24;21.20;99.90
30764;DHT22;17497;51.476;7.770;2023-09-18T03:35:53;21.30;99.90
30764;DHT22;17497;51.476;7.770;2023-09-18T03:38:21;21.30;99.90
30764;DHT22;17497;51.476;7.770;2023-09-18T03:40:48;21.30;99.90
30764;DHT22;17497;51.476;7.770;2023-09-18T03:43:15;21.30;99.90
30764;DHT22;17497;51.476;7.770;2023-09-18T03:45:42;21.20;99.90
30764;DHT22;17497;51.476;7.770;2023-09-18T03:48:10;21.20;99.90
30764;DHT22;17497;51.476;7.770;2023-09-18T03:50:37;21.20;99.90
30764;DHT22;17497;51.476;7.770;2023-09-18T03:53:05;21.10;99.90
30764;DHT22;17497;51.476;7.770;2023-09-18T03:55:32;21.10;99.90
30764;DHT22;17497;51.476;7.770;2023-09-18T03:57:59;21.00;99.90
30764;DHT22;17497;51.476;7.770;2023-09-18T04:00:27;21.00;99.90
30764;DHT22;17497;51.476;7.770;2023-09-18T04:02:54;21.10;99.90
30764;DHT22;17497;51.476;7.770;2023-09-18T04:05:21;21.10;99.90
30764;DHT22;17497;51.476;7.770;2023-09-18T04:07:48;21.10;99.90
30764;DHT22;17497;51.476;7.770;2023-09-18T04:10:15;21.10;99.90
30764;DHT22;17497;51.476;7.770;2023-09-18T04:12:46;21.00;99.90
30764;DHT22;17497;51.476;7.770;2023-09-18T04:15:14;20.90;99.90
30764;DHT22;17497;51.476;7.770;2023-09-18T04:17:41;20.90;99.90
30764;DHT22;17497;51.476;7.770;2023-09-18T04:20:09;20.90;99.90
30764;DHT22;17497;51.476;7.770;2023-09-18T04:22:36;20.90;99.90
30764;DHT22;17497;51.476;7.770;2023-09-18T04:25:03;20.90;99.90
30764;DHT22;17497;51.476;7.770;2023-09-18T04:27:31;21.00;99.90
30764;DHT22;17497;51.476;7.770;2023-09-18T04:29:58;21.10;99.90
30764;DHT22;17497;51.476;7.770;2023-09-18T04:32:30;21.10;99.90
30764;DHT22;17497;51.476;7.770;2023-09-18T04:34:57;21.20;99.90
30764;DHT22;17497;51.476;7.770;2023-09-18T04:37:24;21.20;99.90
30764;DHT22;17497;51.476;7.770;2023-09-18T04:39:51;21.20;99.90
30764;DHT22;17497;51.476;7.770;2023-09-18T04:42:18;21.10;99.90
30764;DHT22;17497;51.476;7.770;2023-09-18T04:44:45;21.00;99.90
30764;DHT22;17497;51.476;7.770;2023-09-18T04:47:12;21.00;99.90
30764;DHT22;17497;51.476;7.770;2023-09-18T04:49:39;21.00;99.90
30764;DHT22;17497;51.476;7.770;2023-09-18T04:52:06;21.10;99.90
30764;DHT22;17497;51.476;7.770;2023-09-18T04:54:33;21.10;99.90
30764;DHT22;17497;51.476;7.770;2023-09-18T04:57:00;21.10;99.90
30764;DHT22;17497;51.476;7.770;2023-09-18T04:59:28;21.10;99.90
30764;DHT22;17497;51.476;7.770;2023-09-18T05:01:55;21.10;99.90
30764;DHT22;17497;51.476;7.770;2023-09-18T05:04:22;21.20;99.90
30764;DHT22;17497;51.476;7.770;2023-09-18T05:06:48;21.20;99.90
30764;DHT22;17497;51.476;7.770;2023-09-18T05:09:15;21.20;99.90
30764;DHT22;17497;51.476;7.770;2023-09-18T05:11:42;21.20;99.90
30764;DHT22;17497;51.476;7.770;2023-09-18T05:14:09;21.30;99.90
30764;DHT22;17497;51.476;7.770;2023-09-18T05:16:36;21.30;99.90
30764;DHT22;17497;51.476;7.770;2023-09-18T05:19:03;21.30;99.90
30764;DHT22;17497;51.476;7.770;2023-09-18T05:21:30;21.20;99.90
30764;DHT22;17497;51.476;7.770;2023-09-18T05:23:57;21.20;99.90
30764;DHT22;17497;51.476;7.770;2023-09-18T05:26:24;21.20;99.90
30764;DHT22;17497;51.476;7.770;2023-09-18T05:28:51;21.20;99.90
30764;DHT22;17497;51.476;7.770;2023-09-18T05:31:18;21.10;99.90
30764;DHT22;17497;51.476;7.770;2023-09-18T05:33:45;21.10;99.90
30764;DHT22;17497;51.476;7.770;2023-09-18T05:36:13;21.10;99.90
30764;DHT22;17497;51.476;7.770;2023-09-18T05:38:41;21.10;99.90
30764;DHT22;17497;51.476;7.770;2023-09-18T05:41:09;21.00;99.90
30764;DHT22;17497;51.476;7.770;2023-09-18T05:43:36;21.00;99.90
30764;DHT22;17497;51.476;7.770;2023-09-18T05:46:03;21.00;99.90
30764;DHT22;17497;51.476;7.770;2023-09-18T05:48:30;21.00;99.90
30764;DHT22;17497;51.476;7.770;2023-09-18T05:50:57;21.00;99.90
30764;DHT22;17497;51.476;7.770;2023-09-18T05:53:25;20.90;99.90
30764;DHT22;17497;51.476;7.770;2023-09-18T05:55:51;20.90;99.90
30764;DHT22;17497;51.476;7.770;2023-09-18T05:58:18;20.90;99.90
30764;DHT22;17497;51.476;7.770;2023-09-18T06:00:48;20.90;99.90
30764;DHT22;17497;51.476;7.770;2023-09-18T06:03:16;20.90;99.90
30764;DHT22;17497;51.476;7.770;2023-09-18T06:05:45;20.90;99.90
30764;DHT22;17497;51.476;7.770;2023-09-18T06:08:13;20.90;99.90
30764;DHT22;17497;51.476;7.770;2023-09-18T06:10:42;20.90;99.90
30764;DHT22;17497;51.476;7.770;2023-09-18T06:13:09;20.90;99.90
30764;DHT22;17497;51.476;7.770;2023-09-18T06:15:35;20.90;99.90
30764;DHT22;17497;51.476;7.770;2023-09-18T06:18:02;20.90;99.90
30764;DHT22;17497;51.476;7.770;2023-09-18T06:20:30;20.90;99.90
30764;DHT22;17497;51.476;7.770;2023-09-18T06:22:57;20.90;99.90
30764;DHT22;17497;51.476;7.770;2023-09-18T06:25:24;20.90;99.90
30764;DHT22;17497;51.476;7.770;2023-09-18T06:27:51;20.80;99.90
30764;DHT22;17497;51.476;7.770;2023-09-18T06:30:17;20.80;99.90
30764;DHT22;17497;51.476;7.770;2023-09-18T06:32:44;20.80;99.90
30764;DHT22;17497;51.476;7.770;2023-09-18T06:35:11;20.80;99.90
30764;DHT22;17497;51.476;7.770;2023-09-18T06:37:38;20.80;99.90
30764;DHT22;17497;51.476;7.770;2023-09-18T06:40:05;20.80;99.90
30764;DHT22;17497;51.476;7.770;2023-09-18T06:42:32;20.70;99.90
30764;DHT22;17497;51.476;7.770;2023-09-18T06:44:59;20.80;99.90
30764;DHT22;17497;51.476;7.770;2023-09-18T06:47:27;20.70;99.90
30764;DHT22;17497;51.476;7.770;2023-09-18T06:49:54;20.70;99.90
30764;DHT22;17497;51.476;7.770;2023-09-18T06:52:21;20.80;99.90
30764;DHT22;17497;51.476;7.770;2023-09-18T06:54:48;20.80;99.90
30764;DHT22;17497;51.476;7.770;2023-09-18T06:57:15;20.70;99.90
30764;DHT22;17497;51.476;7.770;2023-09-18T06:59:41;20.70;99.90
30764;DHT22;17497;51.476;7.770;2023-09-18T07:02:10;20.60;99.90
30764;DHT22;17497;51.476;7.770;2023-09-18T07:04:37;20.60;99.90
30764;DHT22;17497;51.476;7.770;2023-09-18T07:07:13;20.70;99.90
30764;DHT22;17497;51.476;7.770;2023-09-18T07:09:41;20.70;99.90
30764;DHT22;17497;51.476;7.770;2023-09-18T07:12:28;20.70;99.90
30764;DHT22;17497;51.476;7.770;2023-09-18T07:14:55;20.70;99.90
30764;DHT22;17497;51.476;7.770;2023-09-18T07:17:22;20.70;99.90
30764;DHT22;17497;51.476;7.770;2023-09-18T07:19:48;20.70;99.90
30764;DHT22;17497;51.476;7.770;2023-09-18T07:22:15;20.80;99.90
30764;DHT22;17497;51.476;7.770;2023-09-18T07:24:42;20.70;99.90
30764;DHT22;17497;51.476;7.770;2023-09-18T07:27:11;20.80;99.90
30764;DHT22;17497;51.476;7.770;2023-09-18T07:29:38;20.80;99.90
30764;DHT22;17497;51.476;7.770;2023-09-18T07:32:05;20.80;99.90
30764;DHT22;17497;51.476;7.770;2023-09-18T07:34:32;20.90;99.90
30764;DHT22;17497;51.476;7.770;2023-09-18T07:36:59;21.00;99.90
30764;DHT22;17497;51.476;7.770;2023-09-18T07:39:30;21.00;99.90
30764;DHT22;17497;51.476;7.770;2023-09-18T07:41:57;21.00;99.90
30764;DHT22;17497;51.476;7.770;2023-09-18T07:44:24;20.90;99.90
30764;DHT22;17497;51.476;7.770;2023-09-18T07:46:51;21.00;99.90
30764;DHT22;17497;51.476;7.770;2023-09-18T07:49:18;21.00;99.90
30764;DHT22;17497;51.476;7.770;2023-09-18T07:51:46;20.90;99.90
30764;DHT22;17497;51.476;7.770;2023-09-18T07:54:14;20.90;99.90
30764;DHT22;17497;51.476;7.770;2023-09-18T07:56:42;20.90;99.90
30764;DHT22;17497;51.476;7.770;2023-09-18T07:59:10;20.80;99.90
30764;DHT22;17497;51.476;7.770;2023-09-18T08:01:37;20.80;99.90
30764;DHT22;17497;51.476;7.770;2023-09-18T08:04:06;20.80;99.90
30764;DHT22;17497;51.476;7.770;2023-09-18T08:06:33;20.90;99.90
30764;DHT22;17497;51.476;7.770;2023-09-18T08:09:00;20.90;99.90
30764;DHT22;17497;51.476;7.770;2023-09-18T08:11:27;20.90;99.90
30764;DHT22;17497;51.476;7.770;2023-09-18T08:13:54;21.00;99.90
30764;DHT22;17497;51.476;7.770;2023-09-18T08:16:24;21.00;99.90
30764;DHT22;17497;51.476;7.770;2023-09-18T08:18:54;21.00;99.90
30764;DHT22;17497;51.476;7.770;2023-09-18T08:21:33;21.00;99.90
30764;DHT22;17497;51.476;7.770;2023-09-18T08:24:05;21.10;99.90
30764;DHT22;17497;51.476;7.770;2023-09-18T08:26:35;21.00;99.90
30764;DHT22;17497;51.476;7.770;2023-09-18T08:29:03;21.00;99.90
30764;DHT22;17497;51.476;7.770;2023-09-18T08:31:31;21.00;99.90
30764;DHT22;17497;51.476;7.770;2023-09-18T08:33:58;21.20;99.90
30764;DHT22;17497;51.476;7.770;2023-09-18T08:36:25;21.30;99.90
30764;DHT22;17497;51.476;7.770;2023-09-18T08:38:56;21.50;99.90
30764;DHT22;17497;51.476;7.770;2023-09-18T08:41:24;21.60;99.90
30764;DHT22;17497;51.476;7.770;2023-09-18T08:44:01;21.60;99.90
30764;DHT22;17497;51.476;7.770;2023-09-18T08:46:28;21.70;99.90
30764;DHT22;17497;51.476;7.770;2023-09-18T08:49:00;21.70;99.90
30764;DHT22;17497;51.476;7.770;2023-09-18T08:51:28;21.60;99.90
30764;DHT22;17497;51.476;7.770;2023-09-18T08:54:05;21.60;99.90
30764;DHT22;17497;51.476;7.770;2023-09-18T08:56:37;21.60;99.90
30764;DHT22;17497;51.476;7.770;2023-09-18T08:59:08;21.60;99.90
30764;DHT22;17497;51.476;7.770;2023-09-18T09:01:37;21.60;99.90
30764;DHT22;17497;51.476;7.770;2023-09-18T09:04:04;21.60;99.90
30764;DHT22;17497;51.476;7.770;2023-09-18T09:06:31;21.70;99.90
30764;DHT22;17497;51.476;7.770;2023-09-18T09:09:00;21.70;99.90
30764;DHT22;17497;51.476;7.770;2023-09-18T09:11:28;21.70;99.90
30764;DHT22;17497;51.476;7.770;2023-09-18T09:14:12;21.80;99.90
30764;DHT22;17497;51.476;7.770;2023-09-18T09:16:50;21.80;99.90
30764;DHT22;17497;51.476;7.770;2023-09-18T09:19:34;21.90;99.90
30764;DHT22;17497;51.476;7.770;2023-09-18T09:22:05;21.90;99.90
30764;DHT22;17497;51.476;7.770;2023-09-18T09:24:42;21.80;99.90
30764;DHT22;17497;51.476;7.770;2023-09-18T09:27:10;21.60;99.90
30764;DHT22;17497;51.476;7.770;2023-09-18T09:29:37;21.40;99.90
30764;DHT22;17497;51.476;7.770;2023-09-18T09:32:17;21.40;99.90
30764;DHT22;17497;51.476;7.770;2023-09-18T09:34:45;21.40;99.90
30764;DHT22;17497;51.476;7.770;2023-09-18T09:37:13;21.60;99.90
30764;DHT22;17497;51.476;7.770;2023-09-18T09:39:50;21.70;99.90
30764;DHT22;17497;51.476;7.770;2023-09-18T09:42:19;21.90;99.90
30764;DHT22;17497;51.476;7.770;2023-09-18T09:45:05;22.10;99.90
30764;DHT22;17497;51.476;7.770;2023-09-18T09:47:35;22.40;99.90
30764;DHT22;17497;51.476;7.770;2023-09-18T09:50:10;22.30;99.90
30764;DHT22;17497;51.476;7.770;2023-09-18T09:52:42;22.40;99.90
30764;DHT22;17497;51.476;7.770;2023-09-18T09:55:25;22.60;99.90
30764;DHT22;17497;51.476;7.770;2023-09-18T09:57:56;22.90;99.90
30764;DHT22;17497;51.476;7.770;2023-09-18T10:00:30;23.00;99.90
30764;DHT22;17497;51.476;7.770;2023-09-18T10:03:03;23.00;99.90
30764;DHT22;17497;51.476;7.770;2023-09-18T10:05:33;22.90;99.90
30764;DHT22;17497;51.476;7.770;2023-09-18T10:08:08;22.90;99.90
30764;DHT22;17497;51.476;7.770;2023-09-18T10:10:39;22.80;99.90
30764;DHT22;17497;51.476;7.770;2023-09-18T10:13:10;22.90;99.90
30764;DHT22;17497;51.476;7.770;2023-09-18T10:15:39;23.10;99.90
30764;DHT22;17497;51.476;7.770;2023-09-18T10:21:22;23.50;99.90
30764;DHT22;17497;51.476;7.770;2023-09-18T10:24:23;23.40;99.90
30764;DHT22;17497;51.476;7.770;2023-09-18T10:26:52;23.30;99.90
30764;DHT22;17497;51.476;7.770;2023-09-18T10:29:23;23.20;99.90
30764;DHT22;17497;51.476;7.770;2023-09-18T10:31:53;23.20;99.90
30764;DHT22;17497;51.476;7.770;2023-09-18T10:34:23;23.20;99.90
30764;DHT22;17497;51.476;7.770;2023-09-18T10:36:54;23.00;99.90
30764;DHT22;17497;51.476;7.770;2023-09-18T10:39:23;23.00;99.90
30764;DHT22;17497;51.476;7.770;2023-09-18T10:41:53;22.90;99.90
30764;DHT22;17497;51.476;7.770;2023-09-18T10:44:20;22.90;99.90
30764;DHT22;17497;51.476;7.770;2023-09-18T10:46:48;22.70;99.90
30764;DHT22;17497;51.476;7.770;2023-09-18T10:49:16;22.70;99.90
30764;DHT22;17497;51.476;7.770;2023-09-18T10:51:43;22.70;99.90
30764;DHT22;17497;51.476;7.770;2023-09-18T10:54:11;22.50;99.90
30764;DHT22;17497;51.476;7.770;2023-09-18T10:56:42;22.70;99.90
30764;DHT22;17497;51.476;7.770;2023-09-18T10:59:09;23.10;99.90
30764;DHT22;17497;51.476;7.770;2023-09-18T11:01:36;23.70;99.90
30764;DHT22;17497;51.476;7.770;2023-09-18T11:04:04;24.20;99.90
30764;DHT22;17497;51.476;7.770;2023-09-18T11:09:21;25.20;99.90
30764;DHT22;17497;51.476;7.770;2023-09-18T11:14:45;25.80;99.90
30764;DHT22;17497;51.476;7.770;2023-09-18T11:20:24;25.80;99.90
30764;DHT22;17497;51.476;7.770;2023-09-18T11:22:56;26.40;99.90
30764;DHT22;17497;51.476;7.770;2023-09-18T11:25:35;26.70;99.90
30764;DHT22;17497;51.476;7.770;2023-09-18T11:28:05;26.70;99.90
30764;DHT22;17497;51.476;7.770;2023-09-18T11:30:36;26.40;99.90
30764;DHT22;17497;51.476;7.770;2023-09-18T11:33:04;26.40;99.90
30764;DHT22;17497;51.476;7.770;2023-09-18T11:35:35;26.90;99.90
30764;DHT22;17497;51.476;7.770;2023-09-18T11:38:07;26.80;99.90
30764;DHT22;17497;51.476;7.770;2023-09-18T11:40:37;26.30;99.90
30764;DHT22;17497;51.476;7.770;2023-09-18T11:43:23;26.60;99.90
30764;DHT22;17497;51.476;7.770;2023-09-18T11:45:54;27.40;99.90
30764;DHT22;17497;51.476;7.770;2023-09-18T11:48:26;27.70;99.90
30764;DHT22;17497;51.476;7.770;2023-09-18T11:50:57;28.00;99.90
30764;DHT22;17497;51.476;7.770;2023-09-18T11:53:27;28.10;99.90
30764;DHT22;17497;51.476;7.770;2023-09-18T11:55:54;28.60;99.90
30764;DHT22;17497;51.476;7.770;2023-09-18T11:58:23;28.60;99.90
30764;DHT22;17497;51.476;7.770;2023-09-18T12:00:53;29.10;99.90
30764;DHT22;17497;51.476;7.770;2023-09-18T12:03:24;29.20;99.90
30764;DHT22;17497;51.476;7.770;2023-09-18T12:05:59;29.70;99.90
30764;DHT22;17497;51.476;7.770;2023-09-18T12:08:29;29.20;99.90
30764;DHT22;17497;51.476;7.770;2023-09-18T12:10:58;29.30;99.90
30764;DHT22;17497;51.476;7.770;2023-09-18T12:13:26;29.60;99.90
30764;DHT22;17497;51.476;7.770;2023-09-18T12:16:00;29.40;99.90
30764;DHT22;17497;51.476;7.770;2023-09-18T12:18:28;29.10;99.90
30764;DHT22;17497;51.476;7.770;2023-09-18T12:20:57;29.00;99.90
30764;DHT22;17497;51.476;7.770;2023-09-18T12:23:27;29.50;99.90
30764;DHT22;17497;51.476;7.770;2023-09-18T12:25:59;28.70;99.90
30764;DHT22;17497;51.476;7.770;2023-09-18T12:28:26;28.50;99.90
30764;DHT22;17497;51.476;7.770;2023-09-18T12:31:00;28.50;99.90
30764;DHT22;17497;51.476;7.770;2023-09-18T12:33:37;28.20;99.90
30764;DHT22;17497;51.476;7.770;2023-09-18T12:36:05;27.90;99.90
30764;DHT22;17497;51.476;7.770;2023-09-18T12:38:38;27.80;99.90
30764;DHT22;17497;51.476;7.770;2023-09-18T12:41:06;27.70;99.90
30764;DHT22;17497;51.476;7.770;2023-09-18T12:43:38;27.30;99.90
30764;DHT22;17497;51.476;7.770;2023-09-18T12:46:09;26.80;99.90
30764;DHT22;17497;51.476;7.770;2023-09-18T12:48:45;26.60;99.90
30764;DHT22;17497;51.476;7.770;2023-09-18T12:51:14;26.80;99.90
30764;DHT22;17497;51.476;7.770;2023-09-18T12:53:59;27.70;99.90
30764;DHT22;17497;51.476;7.770;2023-09-18T12:56:40;28.30;99.90
30764;DHT22;17497;51.476;7.770;2023-09-18T12:59:08;28.70;99.90
30764;DHT22;17497;51.476;7.770;2023-09-18T13:01:50;28.70;99.90
30764;DHT22;17497;51.476;7.770;2023-09-18T13:04:20;28.20;99.90
30764;DHT22;17497;51.476;7.770;2023-09-18T13:09:33;26.60;99.90
30764;DHT22;17497;51.476;7.770;2023-09-18T13:12:00;26.10;99.90
30764;DHT22;17497;51.476;7.770;2023-09-18T13:14:26;26.00;99.90
30764;DHT22;17497;51.476;7.770;2023-09-18T13:17:00;26.70;99.90
30764;DHT22;17497;51.476;7.770;2023-09-18T13:19:27;27.90;99.90
30764;DHT22;17497;51.476;7.770;2023-09-18T13:21:55;28.40;99.90
30764;DHT22;17497;51.476;7.770;2023-09-18T13:24:26;28.10;99.90
30764;DHT22;17497;51.476;7.770;2023-09-18T13:26:57;27.40;99.90
30764;DHT22;17497;51.476;7.770;2023-09-18T13:29:26;26.70;99.90
30764;DHT22;17497;51.476;7.770;2023-09-18T13:31:53;26.10;99.90
30764;DHT22;17497;51.476;7.770;2023-09-18T13:34:20;25.70;99.90
30764;DHT22;17497;51.476;7.770;2023-09-18T13:36:48;25.40;99.90
30764;DHT22;17497;51.476;7.770;2023-09-18T13:39:15;25.00;99.90
30764;DHT22;17497;51.476;7.770;2023-09-18T13:41:43;24.80;99.90
30764;DHT22;17497;51.476;7.770;2023-09-18T13:44:11;24.40;99.90
30764;DHT22;17497;51.476;7.770;2023-09-18T13:46:38;24.40;99.90
30764;DHT22;17497;51.476;7.770;2023-09-18T13:49:05;24.40;99.90
30764;DHT22;17497;51.476;7.770;2023-09-18T13:51:33;24.90;99.90
30764;DHT22;17497;51.476;7.770;2023-09-18T13:54:00;25.00;99.90
30764;DHT22;17497;51.476;7.770;2023-09-18T13:56:27;24.90;99.90
30764;DHT22;17497;51.476;7.770;2023-09-18T13:58:55;24.70;99.90
30764;DHT22;17497;51.476;7.770;2023-09-18T14:01:25;24.30;99.90
30764;DHT22;17497;51.476;7.770;2023-09-18T14:03:53;24.30;99.90
30764;DHT22;17497;51.476;7.770;2023-09-18T14:06:20;25.00;99.90
30764;DHT22;17497;51.476;7.770;2023-09-18T14:08:48;25.90;99.90
30764;DHT22;17497;51.476;7.770;2023-09-18T14:11:15;26.50;99.90
30764;DHT22;17497;51.476;7.770;2023-09-18T14:13:43;26.50;99.90
30764;DHT22;17497;51.476;7.770;2023-09-18T14:16:09;27.20;99.90
30764;DHT22;17497;51.476;7.770;2023-09-18T14:18:37;27.00;99.90
30764;DHT22;17497;51.476;7.770;2023-09-18T14:21:05;26.40;99.90
30764;DHT22;17497;51.476;7.770;2023-09-18T14:23:33;26.70;99.90
30764;DHT22;17497;51.476;7.770;2023-09-18T14:26:01;26.40;99.90
30764;DHT22;17497;51.476;7.770;2023-09-18T14:28:28;26.40;99.90
30764;DHT22;17497;51.476;7.770;2023-09-18T14:30:54;25.70;99.90
30764;DHT22;17497;51.476;7.770;2023-09-18T14:33:22;25.30;99.90
30764;DHT22;17497;51.476;7.770;2023-09-18T14:35:49;25.10;99.90
30764;DHT22;17497;51.476;7.770;2023-09-18T14:38:16;24.90;99.90
30764;DHT22;17497;51.476;7.770;2023-09-18T14:40:43;25.00;99.90
30764;DHT22;17497;51.476;7.770;2023-09-18T14:43:10;25.80;99.90
30764;DHT22;17497;51.476;7.770;2023-09-18T14:45:38;26.90;99.90
30764;DHT22;17497;51.476;7.770;2023-09-18T14:48:06;27.80;99.90
30764;DHT22;17497;51.476;7.770;2023-09-18T14:50:33;28.60;99.90
30764;DHT22;17497;51.476;7.770;2023-09-18T14:53:00;28.90;98.40
30764;DHT22;17497;51.476;7.770;2023-09-18T14:55:27;29.30;97.40
30764;DHT22;17497;51.476;7.770;2023-09-18T14:57:54;29.80;97.20
30764;DHT22;17497;51.476;7.770;2023-09-18T15:00:21;30.90;93.60
30764;DHT22;17497;51.476;7.770;2023-09-18T15:02:48;31.10;92.10
30764;DHT22;17497;51.476;7.770;2023-09-18T15:05:15;30.60;91.70
30764;DHT22;17497;51.476;7.770;2023-09-18T15:07:44;29.50;92.30
30764;DHT22;17497;51.476;7.770;2023-09-18T15:10:10;28.00;95.50
30764;DHT22;17497;51.476;7.770;2023-09-18T15:12:37;27.10;97.20
30764;DHT22;17497;51.476;7.770;2023-09-18T15:15:04;26.60;98.20
30764;DHT22;17497;51.476;7.770;2023-09-18T15:17:31;26.10;99.40
30764;DHT22;17497;51.476;7.770;2023-09-18T15:19:59;26.10;99.60
30764;DHT22;17497;51.476;7.770;2023-09-18T15:22:26;26.60;99.30
30764;DHT22;17497;51.476;7.770;2023-09-18T15:24:53;27.50;96.60
30764;DHT22;17497;51.476;7.770;2023-09-18T15:27:24;28.30;95.50
30764;DHT22;17497;51.476;7.770;2023-09-18T15:29:51;29.00;94.10
30764;DHT22;17497;51.476;7.770;2023-09-18T15:32:18;29.00;92.40
30764;DHT22;17497;51.476;7.770;2023-09-18T15:34:46;28.40;93.50
30764;DHT22;17497;51.476;7.770;2023-09-18T15:37:14;27.80;94.50
30764;DHT22;17497;51.476;7.770;2023-09-18T15:39:43;27.80;94.70
30764;DHT22;17497;51.476;7.770;2023-09-18T15:42:10;28.50;93.30
30764;DHT22;17497;51.476;7.770;2023-09-18T15:44:36;29.10;93.50
30764;DHT22;17497;51.476;7.770;2023-09-18T15:47:04;29.50;92.80
30764;DHT22;17497;51.476;7.770;2023-09-18T15:49:31;29.80;91.80
30764;DHT22;17497;51.476;7.770;2023-09-18T15:51:58;30.00;90.60
30764;DHT22;17497;51.476;7.770;2023-09-18T15:54:25;29.60;90.80